Terminal Aerodrome Forecast
Issued by NWS

Home | Current Version | Previous Version | Text Only | Print | Product List | Glossary On
Versions: 1 2 3 4 5 6 7 8 9 10 11 12 13 14 15 16 17 18 19 20 21 22 23 24 25 26
000
FTUS44 KHGX 262330
TAFLBX
TAF
KLBX 262330Z 2700/2724 16019G28KT P6SM VCSH BKN022 BKN027
     FM270600 15014KT P6SM BKN015
     FM270900 17019KT P6SM VCSH OVC015
     FM271700 17019G26KT P6SM VCTS OVC019CB=

USA.gov is the U.S. government's official web portal to all federal, state and local government web resources and services.